Time;durP1;ratioP1;P1;durP2;ratioP2;P2;SDS_P1;SDS_P2;PMS_P1;PMS_P2;Temp;Humidity;BMP_temperature;BMP_pressure;BME280_temperature;BME280_humidity;BME280_pressure;Samples;Min_cycle;Max_cycle;Signal;HPM_P1;HPM_P2
2022/06/13 00:00:38;;;;;;;3.80;3.50;;;;;;;;;;5011708;28;20577;-84
2022/06/13 00:03:06;;;;;;;3.93;3.27;;;;;;;;;;5011440;28;20677;-84
2022/06/13 00:05:33;;;;;;;4.20;3.83;;;;;;;;;;5011403;28;20203;-84
2022/06/13 00:08:00;;;;;;;3.87;3.57;;;;;;;;;;5010651;28;20339;-84
2022/06/13 00:10:28;;;;;;;4.07;3.67;;;;;;;;;;5011188;28;20287;-85
2022/06/13 00:12:55;;;;;;;4.33;3.93;;;;;;;;;;5011322;28;20209;-84
2022/06/13 00:15:22;;;;;;;5.43;4.57;;;;;;;;;;5011163;28;20195;-84
2022/06/13 00:17:51;;;;;;;3.80;3.50;;;;;;;;;;5010736;28;20228;-83
2022/06/13 00:20:18;;;;;;;5.50;3.30;;;;;;;;;;5010698;28;20272;-84
2022/06/13 00:22:45;;;;;;;5.27;3.67;;;;;;;;;;5010472;28;20196;-84
2022/06/13 00:25:13;;;;;;;4.63;3.60;;;;;;;;;;5010729;28;20209;-84
2022/06/13 00:27:40;;;;;;;4.60;4.20;;;;;;;;;;5010807;28;20210;-84
2022/06/13 00:30:09;;;;;;;4.70;4.27;;;;;;;;;;5010904;28;20239;-84
2022/06/13 00:32:36;;;;;;;4.07;3.77;;;;;;;;;;5010619;28;20209;-84
2022/06/13 00:35:06;;;;;;;4.00;3.70;;;;;;;;;;5010762;28;20234;-85
2022/06/13 00:37:33;;;;;;;4.33;4.03;;;;;;;;;;5010734;28;20630;-84
2022/06/13 00:40:01;;;;;;;8.00;3.73;;;;;;;;;;5010671;28;20722;-85
2022/06/13 00:42:29;;;;;;;5.03;3.90;;;;;;;;;;5010360;28;20206;-83
2022/06/13 00:45:07;;;;;;;4.13;3.83;;;;;;;;;;5010626;28;20209;-83
2022/06/13 00:47:35;;;;;;;3.77;3.47;;;;;;;;;;5010562;28;20194;-84
2022/06/13 00:50:03;;;;;;;3.80;3.50;;;;;;;;;;5010657;28;20281;-85
2022/06/13 00:52:36;;;;;;;3.37;3.17;;;;;;;;;;5010378;28;20760;-85
2022/06/13 00:55:04;;;;;;;7.43;3.90;;;;;;;;;;5010520;28;20248;-84
2022/06/13 00:57:31;;;;;;;3.80;3.50;;;;;;;;;;5010439;28;20321;-84
2022/06/13 01:00:05;;;;;;;4.17;3.87;;;;;;;;;;5010608;28;20223;-85
2022/06/13 01:02:32;;;;;;;4.07;3.57;;;;;;;;;;5010130;28;20278;-84
2022/06/13 01:04:59;;;;;;;4.80;4.30;;;;;;;;;;5010671;28;20336;-83
2022/06/13 01:07:29;;;;;;;4.17;3.87;;;;;;;;;;5009911;28;20199;-83
2022/06/13 01:12:42;;;;;;;4.33;3.93;;;;;;;;;;5010150;28;20213;-84
2022/06/13 01:15:20;;;;;;;4.40;3.80;;;;;;;;;;5010548;28;20217;-84
2022/06/13 01:17:57;;;;;;;4.07;3.67;;;;;;;;;;5009965;28;20283;-84
2022/06/13 01:20:45;;;;;;;4.00;3.60;;;;;;;;;;5010164;28;20243;-84
2022/06/13 01:24:00;;;;;;;5.07;4.30;;;;;;;;;;5009738;28;20221;-84
2022/06/13 01:27:14;;;;;;;3.77;3.43;;;;;;;;;;5000127;28;20294;-84
2022/06/13 01:29:52;;;;;;;7.23;4.20;;;;;;;;;;5009893;28;20192;-85
2022/06/13 01:32:32;;;;;;;4.30;4.00;;;;;;;;;;5009820;28;20201;-84
2022/06/13 01:35:12;;;;;;;4.50;4.10;;;;;;;;;;5010043;28;20198;-85
2022/06/13 01:37:49;;;;;;;4.30;3.90;;;;;;;;;;5010202;28;20214;-84
2022/06/13 01:40:39;;;;;;;5.70;3.80;;;;;;;;;;5009831;28;20214;-85
2022/06/13 01:43:11;;;;;;;3.77;3.47;;;;;;;;;;5010133;28;20550;-85
2022/06/13 01:45:42;;;;;;;3.90;3.63;;;;;;;;;;5010044;28;20249;-83
2022/06/13 01:48:19;;;;;;;5.57;3.57;;;;;;;;;;5020953;28;20198;-84
2022/06/13 01:50:50;;;;;;;4.27;3.67;;;;;;;;;;5029333;28;20182;-84
2022/06/13 01:53:23;;;;;;;4.03;3.73;;;;;;;;;;5029320;28;20202;-84
2022/06/13 01:55:57;;;;;;;4.77;3.93;;;;;;;;;;5029737;28;20277;-84
2022/06/13 01:58:29;;;;;;;4.10;3.80;;;;;;;;;;5029493;28;20281;-84
2022/06/13 02:01:02;;;;;;;4.03;3.70;;;;;;;;;;5029102;28;20211;-85
2022/06/13 02:03:33;;;;;;;3.97;3.73;;;;;;;;;;5028759;28;20643;-84
2022/06/13 02:06:03;;;;;;;4.23;3.87;;;;;;;;;;5029296;28;20183;-84
2022/06/13 02:08:34;;;;;;;6.03;4.17;;;;;;;;;;5028581;28;20325;-85
2022/06/13 02:11:05;;;;;;;4.30;4.00;;;;;;;;;;5029139;28;20277;-84
2022/06/13 02:13:37;;;;;;;6.60;4.10;;;;;;;;;;5029311;28;20567;-85
2022/06/13 02:16:09;;;;;;;5.17;4.30;;;;;;;;;;5029128;28;20229;-85
2022/06/13 02:18:42;;;;;;;4.03;3.73;;;;;;;;;;5029029;28;20220;-84
2022/06/13 02:21:12;;;;;;;6.60;3.90;;;;;;;;;;5029150;28;20585;-84
2022/06/13 02:23:43;;;;;;;3.90;3.67;;;;;;;;;;5028987;28;20580;-84
2022/06/13 02:26:12;;;;;;;4.47;4.07;;;;;;;;;;5029050;28;20271;-85
2022/06/13 02:28:44;;;;;;;5.53;4.13;;;;;;;;;;5028521;28;20199;-84
2022/06/13 02:31:15;;;;;;;5.00;4.47;;;;;;;;;;5028949;28;20186;-84
2022/06/13 02:33:47;;;;;;;4.13;3.83;;;;;;;;;;5028742;28;20222;-84
2022/06/13 02:36:17;;;;;;;3.93;3.63;;;;;;;;;;5028722;28;20221;-83
2022/06/13 02:38:48;;;;;;;4.13;3.83;;;;;;;;;;5029219;28;20220;-84
2022/06/13 02:41:17;;;;;;;4.73;4.33;;;;;;;;;;5028642;28;20210;-84
2022/06/13 02:43:47;;;;;;;5.27;4.37;;;;;;;;;;5028972;28;20581;-84
2022/06/13 02:46:18;;;;;;;5.07;3.73;;;;;;;;;;5032061;28;20202;-84
2022/06/13 02:48:51;;;;;;;4.50;4.10;;;;;;;;;;5032379;28;20266;-83
2022/06/13 02:51:20;;;;;;;5.37;4.13;;;;;;;;;;5032197;28;20193;-84
2022/06/13 02:53:49;;;;;;;4.53;3.83;;;;;;;;;;5028897;28;20685;-83
2022/06/13 02:56:25;;;;;;;8.20;4.17;;;;;;;;;;5012672;28;20225;-87
2022/06/13 02:59:01;;;;;;;4.37;3.97;;;;;;;;;;5012681;28;20193;-86
2022/06/13 03:01:34;;;;;;;4.17;3.87;;;;;;;;;;5012396;28;20198;-87
2022/06/13 03:04:07;;;;;;;5.20;3.77;;;;;;;;;;5012529;28;20584;-85
2022/06/13 03:06:41;;;;;;;4.53;4.03;;;;;;;;;;5012211;28;20195;-86
2022/06/13 03:09:11;;;;;;;3.97;3.67;;;;;;;;;;5011927;28;20621;-84
2022/06/13 03:11:44;;;;;;;4.30;3.90;;;;;;;;;;5012195;28;20625;-83
2022/06/13 03:14:25;;;;;;;3.97;3.67;;;;;;;;;;5012457;28;20187;-84
2022/06/13 03:16:56;;;;;;;4.10;3.70;;;;;;;;;;5012143;28;20270;-83
2022/06/13 03:19:29;;;;;;;4.80;3.57;;;;;;;;;;5011681;28;20376;-83
2022/06/13 03:22:03;;;;;;;4.33;4.03;;;;;;;;;;5011827;28;20194;-84
2022/06/13 03:24:34;;;;;;;5.53;4.73;;;;;;;;;;5011906;28;20663;-84
2022/06/13 03:27:04;;;;;;;4.50;4.10;;;;;;;;;;5011546;28;20208;-84
2022/06/13 03:29:35;;;;;;;4.77;4.37;;;;;;;;;;5012109;28;20184;-84
2022/06/13 03:32:07;;;;;;;6.23;4.03;;;;;;;;;;5011532;28;20196;-84
2022/06/13 03:34:40;;;;;;;4.77;4.37;;;;;;;;;;5011591;28;20683;-84
2022/06/13 03:37:11;;;;;;;8.77;5.50;;;;;;;;;;5011616;28;20223;-83
2022/06/13 03:39:41;;;;;;;5.33;4.93;;;;;;;;;;5011772;28;20268;-84
2022/06/13 03:42:11;;;;;;;4.50;4.20;;;;;;;;;;5011353;28;20187;-83
2022/06/13 03:44:43;;;;;;;8.47;4.87;;;;;;;;;;5011780;28;20567;-83
2022/06/13 03:47:14;;;;;;;4.83;4.43;;;;;;;;;;5011542;28;20180;-83
2022/06/13 03:49:46;;;;;;;10.37;4.57;;;;;;;;;;5011634;28;20274;-83
2022/06/13 03:52:14;;;;;;;4.53;4.23;;;;;;;;;;5011363;28;20188;-83
2022/06/13 03:54:45;;;;;;;4.87;4.47;;;;;;;;;;5011232;28;20252;-83
2022/06/13 03:57:16;;;;;;;4.73;4.43;;;;;;;;;;5010108;28;20276;-84
2022/06/13 03:59:46;;;;;;;4.67;4.27;;;;;;;;;;5011613;28;20203;-83
2022/06/13 04:02:15;;;;;;;4.10;3.67;;;;;;;;;;5011467;28;20191;-83
2022/06/13 04:04:46;;;;;;;4.20;3.87;;;;;;;;;;5010962;28;20196;-83
2022/06/13 04:07:14;;;;;;;4.17;3.87;;;;;;;;;;5011109;28;20237;-83
2022/06/13 04:09:45;;;;;;;4.17;3.77;;;;;;;;;;5011172;28;20239;-83
2022/06/13 04:12:29;;;;;;;3.80;3.50;;;;;;;;;;5011363;28;20644;-83
2022/06/13 04:15:14;;;;;;;6.97;3.33;;;;;;;;;;5010936;28;20191;-84
2022/06/13 04:17:46;;;;;;;4.03;3.60;;;;;;;;;;5010717;28;20279;-83
2022/06/13 04:20:22;;;;;;;4.33;3.93;;;;;;;;;;5011006;28;20302;-83
2022/06/13 04:22:51;;;;;;;4.43;4.07;;;;;;;;;;5010674;28;20737;-83
2022/06/13 04:25:25;;;;;;;4.07;3.67;;;;;;;;;;5011354;28;20740;-83
2022/06/13 04:27:55;;;;;;;5.47;3.53;;;;;;;;;;5010563;28;20279;-83
2022/06/13 04:30:26;;;;;;;3.80;3.50;;;;;;;;;;5010931;28;20180;-83
2022/06/13 04:32:58;;;;;;;4.20;3.90;;;;;;;;;;5011234;28;20187;-83
2022/06/13 04:35:27;;;;;;;4.00;3.70;;;;;;;;;;5008643;28;20221;-83
2022/06/13 04:37:54;;;;;;;3.63;3.33;;;;;;;;;;5009760;28;20286;-83
2022/06/13 04:40:25;;;;;;;3.83;3.63;;;;;;;;;;5010803;28;20223;-83
2022/06/13 04:42:53;;;;;;;6.43;3.70;;;;;;;;;;5010620;28;20191;-83
2022/06/13 04:45:25;;;;;;;4.20;3.80;;;;;;;;;;5010448;28;20204;-83
2022/06/13 04:47:53;;;;;;;3.83;3.53;;;;;;;;;;5010550;28;20186;-83
2022/06/13 04:50:25;;;;;;;9.63;5.23;;;;;;;;;;5010612;28;20613;-83
2022/06/13 04:52:55;;;;;;;3.70;3.40;;;;;;;;;;5010875;28;20187;-83
2022/06/13 04:55:27;;;;;;;7.87;4.30;;;;;;;;;;5010716;28;20566;-83
2022/06/13 04:57:55;;;;;;;5.43;4.30;;;;;;;;;;5010709;28;20627;-83
2022/06/13 05:00:22;;;;;;;4.70;3.40;;;;;;;;;;5010767;28;20597;-83
2022/06/13 05:02:53;;;;;;;4.23;3.83;;;;;;;;;;5010302;28;20651;-83
2022/06/13 05:05:39;;;;;;;3.97;3.67;;;;;;;;;;5010501;28;20187;-83
2022/06/13 05:08:21;;;;;;;4.93;3.97;;;;;;;;;;5009696;28;20322;-83
2022/06/13 05:10:50;;;;;;;4.47;4.07;;;;;;;;;;5010690;28;20570;-83
2022/06/13 05:13:18;;;;;;;3.80;3.50;;;;;;;;;;5010296;28;20271;-83
2022/06/13 05:15:53;;;;;;;4.43;3.40;;;;;;;;;;5010606;28;20557;-83
2022/06/13 05:18:39;;;;;;;3.80;3.50;;;;;;;;;;5010032;28;20644;-84
2022/06/13 05:21:19;;;;;;;5.03;4.53;;;;;;;;;;5009779;28;20226;-83
2022/06/13 05:24:00;;;;;;;4.83;4.43;;;;;;;;;;5009827;28;20230;-83
2022/06/13 05:26:29;;;;;;;5.10;4.20;;;;;;;;;;5010426;28;20645;-83
2022/06/13 05:28:57;;;;;;;4.53;4.07;;;;;;;;;;5010259;28;20231;-83
2022/06/13 05:31:25;;;;;;;5.93;4.10;;;;;;;;;;5010025;28;20196;-84
2022/06/13 05:33:53;;;;;;;4.40;3.83;;;;;;;;;;5009921;28;20203;-83
2022/06/13 05:36:22;;;;;;;3.93;3.53;;;;;;;;;;5010081;28;20272;-83
2022/06/13 05:38:54;;;;;;;7.20;3.70;;;;;;;;;;5009745;28;20196;-83
2022/06/13 05:41:21;;;;;;;8.37;3.60;;;;;;;;;;5009839;28;20311;-83
2022/06/13 05:43:48;;;;;;;5.97;4.57;;;;;;;;;;5009454;28;20282;-83
2022/06/13 05:46:18;;;;;;;3.77;3.53;;;;;;;;;;5009818;28;20238;-84
2022/06/13 05:48:45;;;;;;;3.87;3.40;;;;;;;;;;5009590;28;20199;-83
2022/06/13 05:51:12;;;;;;;4.10;3.60;;;;;;;;;;5010016;28;20274;-83
2022/06/13 05:53:40;;;;;;;4.47;4.07;;;;;;;;;;5009243;28;20388;-83
2022/06/13 05:56:11;;;;;;;4.77;3.97;;;;;;;;;;5009935;28;20203;-83
2022/06/13 05:58:38;;;;;;;4.47;4.10;;;;;;;;;;5009475;28;20192;-84
2022/06/13 06:01:06;;;;;;;3.97;3.67;;;;;;;;;;5009533;28;20230;-84
2022/06/13 06:03:34;;;;;;;4.30;3.57;;;;;;;;;;5009395;28;20202;-83
2022/06/13 06:06:02;;;;;;;4.47;4.07;;;;;;;;;;5009605;28;20199;-83
2022/06/13 06:08:31;;;;;;;5.37;3.83;;;;;;;;;;5009121;28;20330;-84
2022/06/13 06:10:59;;;;;;;3.50;3.30;;;;;;;;;;5009506;28;20210;-83
2022/06/13 06:13:29;;;;;;;3.80;3.50;;;;;;;;;;5009036;28;20199;-83
2022/06/13 06:15:57;;;;;;;4.17;3.87;;;;;;;;;;5009445;28;20675;-83
2022/06/13 06:18:25;;;;;;;4.30;4.00;;;;;;;;;;5008740;28;20252;-83
2022/06/13 06:20:53;;;;;;;3.83;3.53;;;;;;;;;;5008808;28;20235;-84
2022/06/13 06:23:20;;;;;;;4.57;3.63;;;;;;;;;;5009327;28;20199;-84
2022/06/13 06:25:48;;;;;;;4.10;3.80;;;;;;;;;;5009295;28;20207;-84
2022/06/13 06:28:17;;;;;;;4.20;3.33;;;;;;;;;;5008911;28;20202;-83
2022/06/13 06:30:46;;;;;;;4.33;4.00;;;;;;;;;;5009329;28;20206;-83
2022/06/13 06:33:14;;;;;;;4.30;3.87;;;;;;;;;;5009074;28;20708;-83
2022/06/13 06:35:42;;;;;;;4.23;3.50;;;;;;;;;;5009008;28;20668;-84
2022/06/13 06:38:09;;;;;;;5.40;4.07;;;;;;;;;;5008957;28;20195;-84
2022/06/13 06:40:37;;;;;;;5.33;3.90;;;;;;;;;;5009378;28;20688;-83
2022/06/13 06:43:04;;;;;;;4.00;3.70;;;;;;;;;;5008954;28;20622;-83
2022/06/13 06:45:31;;;;;;;4.50;4.20;;;;;;;;;;5009121;28;20204;-83
2022/06/13 06:48:00;;;;;;;5.30;3.83;;;;;;;;;;5008817;28;20290;-84
2022/06/13 06:50:30;;;;;;;4.57;4.20;;;;;;;;;;5009219;28;20210;-84
2022/06/13 06:52:58;;;;;;;4.30;4.00;;;;;;;;;;5009078;28;20199;-83
2022/06/13 07:01:09;;;;;;;8.83;5.37;;;;;;;;;;4973720;28;20223;-83
2022/06/13 07:03:38;;;;;;;4.47;4.03;;;;;;;;;;5008656;28;20203;-84
2022/06/13 07:06:07;;;;;;;5.77;3.97;;;;;;;;;;5008702;28;20199;-83
2022/06/13 07:08:34;;;;;;;4.40;4.00;;;;;;;;;;5008361;28;20232;-84
2022/06/13 07:13:44;;;;;;;4.70;3.93;;;;;;;;;;5008182;28;20199;-83
2022/06/13 07:16:11;;;;;;;5.90;3.70;;;;;;;;;;5008750;28;20290;-84
2022/06/13 07:18:41;;;;;;;4.67;4.27;;;;;;;;;;5008504;28;20629;-83
2022/06/13 07:21:08;;;;;;;4.60;4.20;;;;;;;;;;5008569;28;20231;-84
2022/06/13 07:23:36;;;;;;;4.33;3.60;;;;;;;;;;5008475;28;20286;-83
2022/06/13 07:26:04;;;;;;;4.47;4.07;;;;;;;;;;5008604;28;20283;-83
2022/06/13 07:28:31;;;;;;;4.03;3.73;;;;;;;;;;5008363;28;20199;-84
2022/06/13 07:30:58;;;;;;;4.17;3.87;;;;;;;;;;5010077;28;20196;-83
2022/06/13 07:33:26;;;;;;;4.90;4.50;;;;;;;;;;5011778;28;20284;-84
2022/06/13 07:35:54;;;;;;;5.03;4.23;;;;;;;;;;5011678;28;20200;-83
2022/06/13 07:38:22;;;;;;;5.70;4.33;;;;;;;;;;5011647;28;20200;-84
2022/06/13 07:40:51;;;;;;;4.80;4.30;;;;;;;;;;5011444;28;20267;-84
2022/06/13 07:43:26;;;;;;;4.53;4.23;;;;;;;;;;5011603;28;20298;-84
2022/06/13 07:45:54;;;;;;;5.20;4.70;;;;;;;;;;5011727;28;20698;-84
2022/06/13 07:48:22;;;;;;;7.80;5.67;;;;;;;;;;5011309;28;20239;-84
2022/06/13 07:50:49;;;;;;;4.43;4.13;;;;;;;;;;5011535;28;20200;-84
2022/06/13 07:53:18;;;;;;;5.10;4.40;;;;;;;;;;5011264;28;20290;-84
2022/06/13 07:55:45;;;;;;;5.00;4.50;;;;;;;;;;5011803;28;20280;-84
2022/06/13 07:58:17;;;;;;;4.43;4.03;;;;;;;;;;5011262;28;20287;-84
2022/06/13 08:00:46;;;;;;;5.30;4.80;;;;;;;;;;5011178;28;20659;-84
2022/06/13 08:03:18;;;;;;;5.17;4.47;;;;;;;;;;5011501;28;20199;-84
2022/06/13 08:05:46;;;;;;;5.00;4.50;;;;;;;;;;5011445;28;20188;-84
2022/06/13 08:08:13;;;;;;;4.47;4.17;;;;;;;;;;5011175;28;20243;-84
2022/06/13 08:10:42;;;;;;;4.60;4.20;;;;;;;;;;5011394;28;20207;-84
2022/06/13 08:13:11;;;;;;;4.53;4.23;;;;;;;;;;5011371;28;20204;-84
2022/06/13 08:15:38;;;;;;;4.83;4.47;;;;;;;;;;5011244;28;20702;-84
2022/06/13 08:18:06;;;;;;;5.47;4.40;;;;;;;;;;5011067;28;20299;-84
2022/06/13 08:20:34;;;;;;;4.30;3.97;;;;;;;;;;5011261;28;20227;-84
2022/06/13 08:23:03;;;;;;;4.80;4.40;;;;;;;;;;5010953;28;20226;-84
2022/06/13 08:25:33;;;;;;;4.40;4.00;;;;;;;;;;5011018;28;20664;-84
2022/06/13 08:28:02;;;;;;;4.50;4.10;;;;;;;;;;5010807;28;20660;-84
2022/06/13 08:30:36;;;;;;;4.13;3.83;;;;;;;;;;5011059;28;20278;-84
2022/06/13 08:33:04;;;;;;;4.70;4.40;;;;;;;;;;5010928;28;20184;-84
2022/06/13 08:35:31;;;;;;;4.97;4.57;;;;;;;;;;5010721;28;20203;-84
2022/06/13 08:37:58;;;;;;;4.90;4.40;;;;;;;;;;5010726;28;20253;-84
2022/06/13 08:40:29;;;;;;;8.33;4.57;;;;;;;;;;5011172;28;20207;-84
2022/06/13 08:43:02;;;;;;;5.03;4.63;;;;;;;;;;5010001;28;20298;-84
2022/06/13 08:45:34;;;;;;;5.53;5.03;;;;;;;;;;5010581;28;20274;-84
2022/06/13 08:48:06;;;;;;;6.00;5.10;;;;;;;;;;5010598;28;20278;-83
2022/06/13 08:50:40;;;;;;;6.37;4.90;;;;;;;;;;5010666;28;20717;-84
2022/06/13 08:53:12;;;;;;;5.27;4.87;;;;;;;;;;5010540;28;20222;-84
2022/06/13 08:55:45;;;;;;;5.37;4.97;;;;;;;;;;5010456;28;20184;-84
2022/06/13 08:58:19;;;;;;;8.40;4.97;;;;;;;;;;5010438;28;20229;-85
2022/06/13 09:00:53;;;;;;;6.53;4.80;;;;;;;;;;5010490;28;20280;-84
2022/06/13 09:03:24;;;;;;;4.67;4.27;;;;;;;;;;5010718;28;20183;-84
2022/06/13 09:05:54;;;;;;;4.80;4.40;;;;;;;;;;5010341;28;20673;-84
2022/06/13 09:08:29;;;;;;;4.63;4.23;;;;;;;;;;5010104;28;20246;-84
2022/06/13 09:11:00;;;;;;;5.93;5.43;;;;;;;;;;5010362;28;20186;-83
2022/06/13 09:13:31;;;;;;;5.53;4.80;;;;;;;;;;5010229;28;20190;-84
2022/06/13 09:16:08;;;;;;;5.60;5.10;;;;;;;;;;5010005;28;20649;-84
2022/06/13 09:18:41;;;;;;;5.80;5.33;;;;;;;;;;5010436;28;20233;-84
2022/06/13 09:21:14;;;;;;;5.20;4.53;;;;;;;;;;5010427;28;20188;-84
2022/06/13 09:23:48;;;;;;;5.40;4.90;;;;;;;;;;5009801;28;20191;-84
2022/06/13 09:26:19;;;;;;;6.63;5.50;;;;;;;;;;5010147;28;20256;-84
2022/06/13 09:28:50;;;;;;;5.37;4.77;;;;;;;;;;5009927;28;20180;-83
2022/06/13 09:31:24;;;;;;;5.20;4.67;;;;;;;;;;5010513;28;20188;-84
2022/06/13 09:33:54;;;;;;;5.60;5.20;;;;;;;;;;5009996;28;20222;-83
2022/06/13 09:36:24;;;;;;;5.60;5.07;;;;;;;;;;5009989;28;20576;-84
2022/06/13 09:38:55;;;;;;;5.17;4.70;;;;;;;;;;5010019;28;20634;-84
2022/06/13 09:41:33;;;;;;;5.00;4.60;;;;;;;;;;5009911;28;20196;-83
2022/06/13 09:44:09;;;;;;;5.37;4.87;;;;;;;;;;5009622;28;20184;-82
2022/06/13 09:46:42;;;;;;;6.33;4.93;;;;;;;;;;5009854;28;20278;-84
2022/06/13 09:49:15;;;;;;;5.10;4.60;;;;;;;;;;5009834;28;20226;-84
2022/06/13 09:51:53;;;;;;;5.23;4.73;;;;;;;;;;5009695;28;20275;-83
2022/06/13 09:54:28;;;;;;;6.20;4.90;;;;;;;;;;5008331;28;20191;-84
2022/06/13 09:57:02;;;;;;;6.03;5.53;;;;;;;;;;5009519;28;20237;-84
2022/06/13 09:59:44;;;;;;;5.73;5.23;;;;;;;;;;5010070;28;20283;-84
2022/06/13 10:02:19;;;;;;;5.33;4.90;;;;;;;;;;5009723;28;20618;-84
2022/06/13 10:04:53;;;;;;;5.33;4.93;;;;;;;;;;5009772;28;20184;-83
2022/06/13 10:07:22;;;;;;;5.03;4.63;;;;;;;;;;5009232;28;20202;-84
2022/06/13 10:09:56;;;;;;;4.57;4.27;;;;;;;;;;5009905;28;20321;-84
2022/06/13 10:12:31;;;;;;;8.50;5.33;;;;;;;;;;5009447;28;20270;-83
2022/06/13 10:15:08;;;;;;;5.70;5.20;;;;;;;;;;5009215;28;20193;-84
2022/06/13 10:17:49;;;;;;;10.67;6.03;;;;;;;;;;5009275;28;20724;-86
2022/06/13 10:20:20;;;;;;;5.23;4.80;;;;;;;;;;5009419;28;20188;-84
2022/06/13 10:22:53;;;;;;;6.10;5.60;;;;;;;;;;5009074;28;20303;-83
2022/06/13 10:25:35;;;;;;;6.17;5.57;;;;;;;;;;5009745;28;20312;-84
2022/06/13 10:28:14;;;;;;;5.03;4.50;;;;;;;;;;5009194;28;20286;-83
2022/06/13 10:30:48;;;;;;;10.70;6.53;;;;;;;;;;5009267;28;20187;-84
2022/06/13 10:33:34;;;;;;;6.03;5.40;;;;;;;;;;5009105;28;20184;-84
2022/06/13 10:36:18;;;;;;;7.23;5.00;;;;;;;;;;5009162;28;20201;-85
2022/06/13 10:38:53;;;;;;;8.67;5.63;;;;;;;;;;5008789;28;20199;-85
2022/06/13 10:41:21;;;;;;;6.57;5.97;;;;;;;;;;5009188;28;20274;-84
2022/06/13 10:43:48;;;;;;;6.13;5.53;;;;;;;;;;5008801;28;20263;-84
2022/06/13 10:46:15;;;;;;;6.07;5.47;;;;;;;;;;5008749;28;20209;-84
2022/06/13 10:48:48;;;;;;;7.23;5.53;;;;;;;;;;5009359;28;20283;-84
2022/06/13 10:51:16;;;;;;;7.40;5.40;;;;;;;;;;5009010;28;20191;-84
2022/06/13 10:53:46;;;;;;;6.83;5.37;;;;;;;;;;5008929;28;20195;-84
2022/06/13 10:56:17;;;;;;;5.60;5.20;;;;;;;;;;5009053;28;20274;-84
2022/06/13 10:58:48;;;;;;;6.67;5.30;;;;;;;;;;5008574;28;20716;-84
2022/06/13 11:01:16;;;;;;;5.93;5.40;;;;;;;;;;5008860;28;20245;-83
2022/06/13 11:04:00;;;;;;;6.13;5.37;;;;;;;;;;5008722;28;20795;-84
2022/06/13 11:06:39;;;;;;;5.73;5.30;;;;;;;;;;5011322;28;20198;-83
2022/06/13 11:09:18;;;;;;;7.53;5.30;;;;;;;;;;5011826;28;20238;-84
2022/06/13 11:11:46;;;;;;;6.40;5.80;;;;;;;;;;5012129;28;20649;-84
2022/06/13 11:14:28;;;;;;;6.53;5.27;;;;;;;;;;5012171;28;20199;-85
2022/06/13 11:22:40;;;;;;;7.30;5.37;;;;;;;;;;5012285;28;20587;-84
2022/06/13 11:25:20;;;;;;;7.07;5.93;;;;;;;;;;5012335;28;20180;-84
2022/06/13 11:27:49;;;;;;;6.47;5.43;;;;;;;;;;5011889;28;20219;-84
2022/06/13 11:30:47;;;;;;;5.77;5.27;;;;;;;;;;5011882;28;20265;-84
2022/06/13 11:33:27;;;;;;;6.93;5.67;;;;;;;;;;5012144;28;20187;-84
2022/06/13 11:35:58;;;;;;;7.50;5.67;;;;;;;;;;5012137;28;20657;-84
2022/06/13 11:38:27;;;;;;;5.80;5.30;;;;;;;;;;5011708;28;20196;-85
2022/06/13 11:41:03;;;;;;;6.37;5.50;;;;;;;;;;5011651;28;20206;-84
2022/06/13 11:43:38;;;;;;;6.13;5.23;;;;;;;;;;5011545;28;20246;-84
2022/06/13 11:46:07;;;;;;;8.20;5.17;;;;;;;;;;5011716;28;20183;-84
2022/06/13 11:48:35;;;;;;;6.17;5.50;;;;;;;;;;5011482;28;20207;-84
2022/06/13 11:51:06;;;;;;;7.63;4.83;;;;;;;;;;5011376;28;20700;-84
2022/06/13 11:53:40;;;;;;;5.10;4.70;;;;;;;;;;5011494;28;20188;-84
2022/06/13 11:56:11;;;;;;;5.93;5.33;;;;;;;;;;5011622;28;20191;-84
2022/06/13 11:58:42;;;;;;;5.73;5.13;;;;;;;;;;5011664;28;20573;-84
2022/06/13 12:01:20;;;;;;;5.90;5.30;;;;;;;;;;5011328;28;20180;-84
2022/06/13 12:04:00;;;;;;;5.83;5.33;;;;;;;;;;5011208;28;20687;-84
2022/06/13 12:06:33;;;;;;;6.00;5.40;;;;;;;;;;5011362;28;20188;-83
2022/06/13 12:09:04;;;;;;;5.20;4.80;;;;;;;;;;5011023;28;20331;-84
2022/06/13 12:11:31;;;;;;;5.80;4.80;;;;;;;;;;5011430;28;20188;-84
2022/06/13 12:14:01;;;;;;;5.30;4.90;;;;;;;;;;5011463;28;20231;-84
2022/06/13 12:16:36;;;;;;;6.13;5.40;;;;;;;;;;5011025;28;20618;-83
2022/06/13 12:19:15;;;;;;;5.73;5.10;;;;;;;;;;5010985;28;20215;-83
2022/06/13 12:21:47;;;;;;;5.10;4.70;;;;;;;;;;5011245;28;20183;-83
2022/06/13 12:24:20;;;;;;;6.67;5.33;;;;;;;;;;5011122;28;20207;-84
2022/06/13 12:26:56;;;;;;;6.37;5.87;;;;;;;;;;5010911;28;20286;-84
2022/06/13 12:29:40;;;;;;;7.83;5.90;;;;;;;;;;5011372;28;20546;-84
2022/06/13 12:32:17;;;;;;;5.20;4.80;;;;;;;;;;5010988;28;20246;-84
2022/06/13 12:34:49;;;;;;;6.83;5.50;;;;;;;;;;5011064;28;20278;-84
2022/06/13 12:37:28;;;;;;;5.23;4.73;;;;;;;;;;5011047;28;20634;-84
2022/06/13 12:40:04;;;;;;;5.57;5.17;;;;;;;;;;5010928;28;20191;-84
2022/06/13 12:42:49;;;;;;;5.60;5.10;;;;;;;;;;5010324;28;20246;-84
2022/06/13 12:45:51;;;;;;;5.57;4.70;;;;;;;;;;5011154;28;20215;-84
2022/06/13 12:48:28;;;;;;;4.90;4.50;;;;;;;;;;5007835;28;20290;-84
2022/06/13 12:51:03;;;;;;;5.40;4.90;;;;;;;;;;5010702;28;20195;-84
2022/06/13 12:53:46;;;;;;;5.93;5.30;;;;;;;;;;5010345;28;20194;-84
2022/06/13 12:56:20;;;;;;;6.00;5.50;;;;;;;;;;5011025;28;20192;-84
2022/06/13 12:58:55;;;;;;;5.73;5.23;;;;;;;;;;5010840;28;20190;-83
2022/06/13 13:01:24;;;;;;;7.20;5.27;;;;;;;;;;5010650;28;20643;-83
2022/06/13 13:04:14;;;;;;;5.17;4.77;;;;;;;;;;5010108;28;20231;-83
2022/06/13 13:06:49;;;;;;;6.03;5.53;;;;;;;;;;5010431;28;20192;-83
2022/06/13 13:09:39;;;;;;;5.63;5.13;;;;;;;;;;5010245;28;20232;-83
2022/06/13 13:12:31;;;;;;;5.63;5.13;;;;;;;;;;5010014;28;20253;-83
2022/06/13 13:15:05;;;;;;;6.53;5.97;;;;;;;;;;5010363;28;20287;-83
2022/06/13 13:17:38;;;;;;;5.20;4.80;;;;;;;;;;5010162;28;20237;-83
2022/06/13 13:20:10;;;;;;;6.10;5.43;;;;;;;;;;5010576;28;20560;-83
2022/06/13 13:22:42;;;;;;;5.10;4.70;;;;;;;;;;5009854;28;20294;-83
2022/06/13 13:25:22;;;;;;;5.20;4.70;;;;;;;;;;5010558;28;20219;-83
2022/06/13 13:28:08;;;;;;;6.13;5.63;;;;;;;;;;5010105;28;20188;-83
2022/06/13 13:30:40;;;;;;;5.50;5.10;;;;;;;;;;5009864;28;20187;-83
2022/06/13 13:33:21;;;;;;;5.90;5.13;;;;;;;;;;5010287;28;20263;-83
2022/06/13 13:35:50;;;;;;;6.10;5.40;;;;;;;;;;5010092;28;20267;-83
2022/06/13 13:38:22;;;;;;;5.60;5.10;;;;;;;;;;5009799;28;20195;-83
2022/06/13 13:40:53;;;;;;;5.63;5.13;;;;;;;;;;5009758;28;20196;-83
2022/06/13 13:43:26;;;;;;;7.33;5.83;;;;;;;;;;5009780;28;20711;-83
2022/06/13 13:45:57;;;;;;;7.17;6.00;;;;;;;;;;5009875;28;20229;-83
2022/06/13 13:48:28;;;;;;;5.93;5.43;;;;;;;;;;5009723;28;20202;-84
2022/06/13 13:51:01;;;;;;;6.03;5.53;;;;;;;;;;5009964;28;20191;-84
2022/06/13 13:53:33;;;;;;;5.33;4.83;;;;;;;;;;5009901;28;20215;-83
2022/06/13 13:56:08;;;;;;;6.10;5.43;;;;;;;;;;5010022;28;20574;-83
2022/06/13 13:58:36;;;;;;;7.87;5.17;;;;;;;;;;5010024;28;20183;-83
2022/06/13 14:01:14;;;;;;;7.30;5.43;;;;;;;;;;5009611;28;20195;-83
2022/06/13 14:03:47;;;;;;;6.00;5.30;;;;;;;;;;5008987;28;20191;-83
2022/06/13 14:06:17;;;;;;;5.90;5.30;;;;;;;;;;5009623;28;20188;-83
2022/06/13 14:08:47;;;;;;;6.03;5.53;;;;;;;;;;5009326;28;20242;-83
2022/06/13 14:11:15;;;;;;;5.73;5.10;;;;;;;;;;5009367;28;20195;-83
2022/06/13 14:13:45;;;;;;;5.47;5.00;;;;;;;;;;5009533;28;20323;-83
2022/06/13 14:16:36;;;;;;;5.70;5.30;;;;;;;;;;5009523;28;20282;-82
2022/06/13 14:19:18;;;;;;;5.60;5.10;;;;;;;;;;5009447;28;20551;-83
2022/06/13 14:22:20;;;;;;;6.60;5.90;;;;;;;;;;5009016;28;20644;-83
2022/06/13 14:24:54;;;;;;;5.80;5.37;;;;;;;;;;5006505;28;20267;-83
2022/06/13 14:27:24;;;;;;;8.30;7.60;;;;;;;;;;5008933;28;20360;-83
2022/06/13 14:31:03;;;;;;;6.37;5.33;;;;;;;;;;5009521;28;20647;-83
2022/06/13 14:32:38;;;;;;;5.77;5.27;;;;;;;;;;5008798;28;20227;-83
2022/06/13 14:35:13;;;;;;;5.87;5.30;;;;;;;;;;5008744;28;20199;-82
2022/06/13 14:38:16;;;;;;;5.90;5.30;;;;;;;;;;5028478;28;20642;-83
2022/06/13 14:40:47;;;;;;;5.60;5.03;;;;;;;;;;5024561;28;20207;-86
2022/06/13 14:43:23;;;;;;;5.45;5.05;;;;;;;;;;5012852;28;20195;-89
2022/06/13 14:45:52;;;;;;;12.83;5.43;;;;;;;;;;5021389;28;20316;-86
2022/06/13 14:48:26;;;;;;;5.07;4.67;;;;;;;;;;5032090;28;20201;-84
2022/06/13 14:51:19;;;;;;;6.73;6.03;;;;;;;;;;5032443;28;20217;-87
2022/06/13 14:53:47;;;;;;;6.23;5.63;;;;;;;;;;5030914;28;20209;-82
2022/06/13 14:56:40;;;;;;;5.47;5.00;;;;;;;;;;5031075;28;20190;-82
2022/06/13 14:59:11;;;;;;;6.23;5.73;;;;;;;;;;5022104;28;20198;-83
2022/06/13 15:01:41;;;;;;;5.87;5.27;;;;;;;;;;5030984;28;20183;-82
2022/06/13 15:04:20;;;;;;;5.93;5.40;;;;;;;;;;5031516;28;20206;-83
2022/06/13 15:07:10;;;;;;;6.20;5.60;;;;;;;;;;5011802;28;20231;-82
2022/06/13 15:09:45;;;;;;;6.43;5.87;;;;;;;;;;5012028;28;20235;-83
2022/06/13 15:12:15;;;;;;;9.43;8.43;;;;;;;;;;5012142;28;20199;-82
2022/06/13 15:14:46;;;;;;;8.57;7.43;;;;;;;;;;5011973;28;20226;-83
2022/06/13 15:17:14;;;;;;;8.80;7.77;;;;;;;;;;5011612;28;20187;-82
2022/06/13 15:19:45;;;;;;;5.97;5.57;;;;;;;;;;5012141;28;20624;-82
2022/06/13 15:22:15;;;;;;;6.07;5.50;;;;;;;;;;5011768;28;20257;-82
2022/06/13 15:24:48;;;;;;;9.10;8.30;;;;;;;;;;5015037;28;20202;-82
2022/06/13 15:27:15;;;;;;;12.73;11.57;;;;;;;;;;5020142;28;20291;-83
2022/06/13 15:29:53;;;;;;;6.97;6.47;;;;;;;;;;5012137;28;20283;-82
2022/06/13 15:32:26;;;;;;;10.50;8.53;;;;;;;;;;5011676;28;20191;-83